sensor_id;sensor_type;location;lat;lon;timestamp;P1;durP1;ratioP1;P2;durP2;ratioP2
41755;SDS011;27435;48.480;9.258;2022-11-13T00:01:08;26.90;;;8.90;;
41755;SDS011;27435;48.480;9.258;2022-11-13T00:03:44;18.90;;;9.43;;
41755;SDS011;27435;48.480;9.258;2022-11-13T00:06:11;16.77;;;8.17;;
41755;SDS011;27435;48.480;9.258;2022-11-13T00:08:37;13.87;;;7.27;;
41755;SDS011;27435;48.480;9.258;2022-11-13T00:11:04;20.30;;;8.20;;
41755;SDS011;27435;48.480;9.258;2022-11-13T00:13:42;17.20;;;8.27;;
41755;SDS011;27435;48.480;9.258;2022-11-13T00:16:11;17.37;;;8.00;;
41755;SDS011;27435;48.480;9.258;2022-11-13T00:18:39;17.27;;;7.33;;
41755;SDS011;27435;48.480;9.258;2022-11-13T00:23:32;19.90;;;8.03;;
41755;SDS011;27435;48.480;9.258;2022-11-13T00:26:06;19.93;;;10.13;;
41755;SDS011;27435;48.480;9.258;2022-11-13T00:28:33;16.77;;;9.27;;
41755;SDS011;27435;48.480;9.258;2022-11-13T00:30:59;20.77;;;9.20;;
41755;SDS011;27435;48.480;9.258;2022-11-13T00:33:26;19.90;;;9.53;;
41755;SDS011;27435;48.480;9.258;2022-11-13T00:35:52;20.50;;;10.23;;
41755;SDS011;27435;48.480;9.258;2022-11-13T00:38:18;27.00;;;13.17;;
41755;SDS011;27435;48.480;9.258;2022-11-13T00:40:43;29.37;;;14.50;;
41755;SDS011;27435;48.480;9.258;2022-11-13T00:43:09;29.67;;;15.33;;
41755;SDS011;27435;48.480;9.258;2022-11-13T00:45:35;24.57;;;13.07;;
41755;SDS011;27435;48.480;9.258;2022-11-13T00:48:00;27.67;;;11.83;;
41755;SDS011;27435;48.480;9.258;2022-11-13T00:50:29;24.23;;;11.63;;
41755;SDS011;27435;48.480;9.258;2022-11-13T00:53:07;24.27;;;10.00;;
41755;SDS011;27435;48.480;9.258;2022-11-13T00:55:32;19.07;;;9.27;;
41755;SDS011;27435;48.480;9.258;2022-11-13T00:57:58;18.97;;;9.40;;
41755;SDS011;27435;48.480;9.258;2022-11-13T01:00:23;23.30;;;10.47;;
41755;SDS011;27435;48.480;9.258;2022-11-13T01:02:49;22.87;;;10.37;;
41755;SDS011;27435;48.480;9.258;2022-11-13T01:05:15;16.43;;;8.67;;
41755;SDS011;27435;48.480;9.258;2022-11-13T01:07:40;22.00;;;10.93;;
41755;SDS011;27435;48.480;9.258;2022-11-13T01:10:06;19.97;;;10.83;;
41755;SDS011;27435;48.480;9.258;2022-11-13T01:12:32;19.83;;;10.03;;
41755;SDS011;27435;48.480;9.258;2022-11-13T01:14:58;20.67;;;10.37;;
41755;SDS011;27435;48.480;9.258;2022-11-13T01:17:27;21.20;;;10.03;;
41755;SDS011;27435;48.480;9.258;2022-11-13T01:19:53;22.90;;;11.60;;
41755;SDS011;27435;48.480;9.258;2022-11-13T01:22:19;21.23;;;10.63;;
41755;SDS011;27435;48.480;9.258;2022-11-13T01:24:45;20.87;;;10.77;;
41755;SDS011;27435;48.480;9.258;2022-11-13T01:27:10;24.20;;;11.13;;
41755;SDS011;27435;48.480;9.258;2022-11-13T01:29:37;18.83;;;10.40;;
41755;SDS011;27435;48.480;9.258;2022-11-13T01:32:03;24.03;;;11.57;;
41755;SDS011;27435;48.480;9.258;2022-11-13T01:34:29;20.90;;;11.57;;
41755;SDS011;27435;48.480;9.258;2022-11-13T01:36:54;19.90;;;11.53;;
41755;SDS011;27435;48.480;9.258;2022-11-13T01:39:20;24.57;;;12.43;;
41755;SDS011;27435;48.480;9.258;2022-11-13T01:41:46;48.80;;;13.80;;
41755;SDS011;27435;48.480;9.258;2022-11-13T01:44:12;71.93;;;14.20;;
41755;SDS011;27435;48.480;9.258;2022-11-13T01:46:51;52.07;;;14.50;;
41755;SDS011;27435;48.480;9.258;2022-11-13T01:52:06;19.27;;;11.90;;
41755;SDS011;27435;48.480;9.258;2022-11-13T01:54:39;42.83;;;11.47;;
41755;SDS011;27435;48.480;9.258;2022-11-13T01:57:17;44.60;;;13.97;;
41755;SDS011;27435;48.480;9.258;2022-11-13T01:59:47;65.13;;;14.90;;
41755;SDS011;27435;48.480;9.258;2022-11-13T02:02:15;55.43;;;14.70;;
41755;SDS011;27435;48.480;9.258;2022-11-13T02:04:41;47.30;;;12.83;;
41755;SDS011;27435;48.480;9.258;2022-11-13T02:07:12;61.27;;;14.07;;
41755;SDS011;27435;48.480;9.258;2022-11-13T02:09:43;96.37;;;17.63;;
41755;SDS011;27435;48.480;9.258;2022-11-13T02:12:35;52.77;;;13.57;;
41755;SDS011;27435;48.480;9.258;2022-11-13T02:15:05;166.07;;;20.50;;
41755;SDS011;27435;48.480;9.258;2022-11-13T02:17:33;91.57;;;14.80;;
41755;SDS011;27435;48.480;9.258;2022-11-13T02:20:04;105.90;;;16.57;;
41755;SDS011;27435;48.480;9.258;2022-11-13T02:22:34;155.00;;;19.87;;
41755;SDS011;27435;48.480;9.258;2022-11-13T02:25:20;35.90;;;13.33;;
41755;SDS011;27435;48.480;9.258;2022-11-13T02:27:47;63.67;;;14.00;;
41755;SDS011;27435;48.480;9.258;2022-11-13T02:30:15;62.80;;;14.80;;
41755;SDS011;27435;48.480;9.258;2022-11-13T02:32:47;30.77;;;11.63;;
41755;SDS011;27435;48.480;9.258;2022-11-13T02:35:15;96.13;;;14.87;;
41755;SDS011;27435;48.480;9.258;2022-11-13T02:37:44;47.47;;;13.17;;
41755;SDS011;27435;48.480;9.258;2022-11-13T02:40:09;46.80;;;12.37;;
41755;SDS011;27435;48.480;9.258;2022-11-13T02:42:35;36.50;;;11.40;;
41755;SDS011;27435;48.480;9.258;2022-11-13T02:45:02;43.83;;;12.40;;
41755;SDS011;27435;48.480;9.258;2022-11-13T02:47:28;36.67;;;12.17;;
41755;SDS011;27435;48.480;9.258;2022-11-13T02:49:54;34.27;;;12.17;;
41755;SDS011;27435;48.480;9.258;2022-11-13T02:52:19;36.73;;;11.23;;
41755;SDS011;27435;48.480;9.258;2022-11-13T02:54:45;32.67;;;11.63;;
41755;SDS011;27435;48.480;9.258;2022-11-13T02:57:10;45.13;;;14.20;;
41755;SDS011;27435;48.480;9.258;2022-11-13T02:59:36;34.67;;;13.93;;
41755;SDS011;27435;48.480;9.258;2022-11-13T03:02:02;42.00;;;16.80;;
41755;SDS011;27435;48.480;9.258;2022-11-13T03:04:27;35.30;;;14.20;;
41755;SDS011;27435;48.480;9.258;2022-11-13T03:06:53;39.27;;;14.73;;
41755;SDS011;27435;48.480;9.258;2022-11-13T03:09:18;37.80;;;15.77;;
41755;SDS011;27435;48.480;9.258;2022-11-13T03:11:44;32.60;;;14.97;;
41755;SDS011;27435;48.480;9.258;2022-11-13T03:14:10;68.73;;;18.27;;
41755;SDS011;27435;48.480;9.258;2022-11-13T03:16:35;82.07;;;17.57;;
41755;SDS011;27435;48.480;9.258;2022-11-13T03:19:01;60.73;;;18.40;;
41755;SDS011;27435;48.480;9.258;2022-11-13T03:21:27;53.33;;;18.20;;
41755;SDS011;27435;48.480;9.258;2022-11-13T03:23:54;83.20;;;19.23;;
41755;SDS011;27435;48.480;9.258;2022-11-13T03:26:20;53.63;;;16.07;;
41755;SDS011;27435;48.480;9.258;2022-11-13T03:28:46;37.30;;;14.93;;
41755;SDS011;27435;48.480;9.258;2022-11-13T03:31:12;32.10;;;14.30;;
41755;SDS011;27435;48.480;9.258;2022-11-13T03:33:37;34.40;;;15.20;;
41755;SDS011;27435;48.480;9.258;2022-11-13T03:36:03;34.40;;;15.47;;
41755;SDS011;27435;48.480;9.258;2022-11-13T03:38:29;31.10;;;13.67;;
41755;SDS011;27435;48.480;9.258;2022-11-13T03:40:55;72.73;;;14.10;;
41755;SDS011;27435;48.480;9.258;2022-11-13T03:43:21;36.30;;;12.77;;
41755;SDS011;27435;48.480;9.258;2022-11-13T03:45:47;33.10;;;13.90;;
41755;SDS011;27435;48.480;9.258;2022-11-13T03:48:13;56.03;;;13.17;;
41755;SDS011;27435;48.480;9.258;2022-11-13T03:50:41;32.63;;;13.37;;
41755;SDS011;27435;48.480;9.258;2022-11-13T03:53:07;88.13;;;16.03;;
41755;SDS011;27435;48.480;9.258;2022-11-13T03:55:33;108.33;;;17.27;;
41755;SDS011;27435;48.480;9.258;2022-11-13T03:57:59;72.67;;;17.33;;
41755;SDS011;27435;48.480;9.258;2022-11-13T04:00:24;152.37;;;17.60;;
41755;SDS011;27435;48.480;9.258;2022-11-13T04:02:53;126.93;;;17.23;;
41755;SDS011;27435;48.480;9.258;2022-11-13T04:05:18;169.37;;;18.07;;
41755;SDS011;27435;48.480;9.258;2022-11-13T04:07:44;146.97;;;17.97;;
41755;SDS011;27435;48.480;9.258;2022-11-13T04:10:09;219.63;;;24.57;;
41755;SDS011;27435;48.480;9.258;2022-11-13T04:12:35;127.50;;;20.67;;
41755;SDS011;27435;48.480;9.258;2022-11-13T04:15:01;119.97;;;17.23;;
41755;SDS011;27435;48.480;9.258;2022-11-13T04:17:26;112.73;;;16.57;;
41755;SDS011;27435;48.480;9.258;2022-11-13T04:19:52;112.13;;;19.33;;
41755;SDS011;27435;48.480;9.258;2022-11-13T04:22:18;127.73;;;19.80;;
41755;SDS011;27435;48.480;9.258;2022-11-13T04:24:43;254.97;;;23.77;;
41755;SDS011;27435;48.480;9.258;2022-11-13T04:27:09;149.70;;;16.60;;
41755;SDS011;27435;48.480;9.258;2022-11-13T04:29:34;190.77;;;21.77;;
41755;SDS011;27435;48.480;9.258;2022-11-13T04:32:00;307.90;;;27.27;;
41755;SDS011;27435;48.480;9.258;2022-11-13T04:34:26;270.83;;;25.93;;
41755;SDS011;27435;48.480;9.258;2022-11-13T04:36:51;219.60;;;18.87;;
41755;SDS011;27435;48.480;9.258;2022-11-13T04:39:17;471.43;;;43.80;;
41755;SDS011;27435;48.480;9.258;2022-11-13T04:41:42;381.53;;;35.50;;
41755;SDS011;27435;48.480;9.258;2022-11-13T04:44:27;335.93;;;29.77;;
41755;SDS011;27435;48.480;9.258;2022-11-13T04:46:52;258.27;;;24.73;;
41755;SDS011;27435;48.480;9.258;2022-11-13T04:49:18;380.17;;;26.57;;
41755;SDS011;27435;48.480;9.258;2022-11-13T04:51:44;257.93;;;22.37;;
41755;SDS011;27435;48.480;9.258;2022-11-13T04:54:09;281.77;;;25.87;;
41755;SDS011;27435;48.480;9.258;2022-11-13T04:56:35;285.67;;;23.70;;
41755;SDS011;27435;48.480;9.258;2022-11-13T04:59:01;202.10;;;20.47;;
41755;SDS011;27435;48.480;9.258;2022-11-13T05:01:29;206.37;;;20.07;;
41755;SDS011;27435;48.480;9.258;2022-11-13T05:03:57;200.83;;;20.83;;
41755;SDS011;27435;48.480;9.258;2022-11-13T05:06:23;206.20;;;18.47;;
41755;SDS011;27435;48.480;9.258;2022-11-13T05:08:49;259.93;;;22.70;;
41755;SDS011;27435;48.480;9.258;2022-11-13T05:11:14;304.10;;;26.43;;
41755;SDS011;27435;48.480;9.258;2022-11-13T05:13:40;250.50;;;22.70;;
41755;SDS011;27435;48.480;9.258;2022-11-13T05:16:06;281.30;;;22.03;;
41755;SDS011;27435;48.480;9.258;2022-11-13T05:18:34;244.47;;;22.87;;
41755;SDS011;27435;48.480;9.258;2022-11-13T05:21:01;212.63;;;21.13;;
41755;SDS011;27435;48.480;9.258;2022-11-13T05:23:27;162.30;;;16.57;;
41755;SDS011;27435;48.480;9.258;2022-11-13T05:25:59;138.80;;;17.03;;
41755;SDS011;27435;48.480;9.258;2022-11-13T05:28:29;176.27;;;16.43;;
41755;SDS011;27435;48.480;9.258;2022-11-13T05:31:01;105.73;;;12.53;;
41755;SDS011;27435;48.480;9.258;2022-11-13T05:33:34;104.33;;;14.10;;
41755;SDS011;27435;48.480;9.258;2022-11-13T05:36:01;82.93;;;13.27;;
41755;SDS011;27435;48.480;9.258;2022-11-13T05:38:31;74.97;;;12.13;;
41755;SDS011;27435;48.480;9.258;2022-11-13T05:41:04;77.07;;;13.33;;
41755;SDS011;27435;48.480;9.258;2022-11-13T05:43:31;69.90;;;12.23;;
41755;SDS011;27435;48.480;9.258;2022-11-13T05:46:07;139.50;;;13.20;;
41755;SDS011;27435;48.480;9.258;2022-11-13T05:48:33;83.88;;;11.88;;
41755;SDS011;27435;48.480;9.258;2022-11-13T05:51:07;62.27;;;11.93;;
41755;SDS011;27435;48.480;9.258;2022-11-13T05:53:38;63.30;;;11.50;;
41755;SDS011;27435;48.480;9.258;2022-11-13T05:58:41;43.03;;;10.07;;
41755;SDS011;27435;48.480;9.258;2022-11-13T06:01:21;78.23;;;13.53;;
41755;SDS011;27435;48.480;9.258;2022-11-13T06:03:58;22.87;;;9.27;;
41755;SDS011;27435;48.480;9.258;2022-11-13T06:06:25;71.07;;;11.13;;
41755;SDS011;27435;48.480;9.258;2022-11-13T06:08:52;66.37;;;11.37;;
41755;SDS011;27435;48.480;9.258;2022-11-13T06:11:21;47.47;;;11.67;;
41755;SDS011;27435;48.480;9.258;2022-11-13T06:13:50;38.73;;;11.47;;
41755;SDS011;27435;48.480;9.258;2022-11-13T06:16:18;64.93;;;11.83;;
41755;SDS011;27435;48.480;9.258;2022-11-13T06:18:46;43.43;;;10.43;;
41755;SDS011;27435;48.480;9.258;2022-11-13T06:21:15;70.60;;;13.07;;
41755;SDS011;27435;48.480;9.258;2022-11-13T06:23:42;124.90;;;16.87;;
41755;SDS011;27435;48.480;9.258;2022-11-13T06:26:27;181.33;;;19.37;;
41755;SDS011;27435;48.480;9.258;2022-11-13T06:28:58;121.73;;;15.97;;
41755;SDS011;27435;48.480;9.258;2022-11-13T06:31:26;149.77;;;17.33;;
41755;SDS011;27435;48.480;9.258;2022-11-13T06:33:53;92.50;;;13.80;;
41755;SDS011;27435;48.480;9.258;2022-11-13T06:36:21;77.03;;;10.93;;
41755;SDS011;27435;48.480;9.258;2022-11-13T06:38:48;103.27;;;13.80;;
41755;SDS011;27435;48.480;9.258;2022-11-13T06:41:15;179.33;;;16.43;;
41755;SDS011;27435;48.480;9.258;2022-11-13T06:43:42;215.43;;;18.00;;
41755;SDS011;27435;48.480;9.258;2022-11-13T06:46:15;94.73;;;13.93;;
41755;SDS011;27435;48.480;9.258;2022-11-13T06:48:42;169.77;;;14.70;;
41755;SDS011;27435;48.480;9.258;2022-11-13T06:51:12;117.17;;;14.27;;
41755;SDS011;27435;48.480;9.258;2022-11-13T06:53:40;126.07;;;16.30;;
41755;SDS011;27435;48.480;9.258;2022-11-13T06:56:06;163.20;;;17.57;;
41755;SDS011;27435;48.480;9.258;2022-11-13T06:58:33;148.30;;;17.90;;
41755;SDS011;27435;48.480;9.258;2022-11-13T07:01:06;88.03;;;11.70;;
41755;SDS011;27435;48.480;9.258;2022-11-13T07:03:37;133.67;;;16.67;;
41755;SDS011;27435;48.480;9.258;2022-11-13T07:06:03;49.17;;;12.43;;
41755;SDS011;27435;48.480;9.258;2022-11-13T07:08:30;69.03;;;12.77;;
41755;SDS011;27435;48.480;9.258;2022-11-13T07:10:57;72.33;;;13.90;;
41755;SDS011;27435;48.480;9.258;2022-11-13T07:13:23;49.03;;;14.10;;
41755;SDS011;27435;48.480;9.258;2022-11-13T07:15:50;53.90;;;16.40;;
41755;SDS011;27435;48.480;9.258;2022-11-13T07:18:16;42.93;;;15.17;;
41755;SDS011;27435;48.480;9.258;2022-11-13T07:20:42;76.23;;;16.03;;
41755;SDS011;27435;48.480;9.258;2022-11-13T07:23:08;38.10;;;14.07;;
41755;SDS011;27435;48.480;9.258;2022-11-13T07:25:34;39.20;;;11.43;;
41755;SDS011;27435;48.480;9.258;2022-11-13T07:28:00;35.10;;;10.90;;
41755;SDS011;27435;48.480;9.258;2022-11-13T07:30:26;29.40;;;11.80;;
41755;SDS011;27435;48.480;9.258;2022-11-13T07:32:52;22.00;;;10.47;;
41755;SDS011;27435;48.480;9.258;2022-11-13T07:35:18;17.87;;;10.23;;
41755;SDS011;27435;48.480;9.258;2022-11-13T07:37:44;16.63;;;9.60;;
41755;SDS011;27435;48.480;9.258;2022-11-13T07:40:13;17.17;;;10.97;;
41755;SDS011;27435;48.480;9.258;2022-11-13T07:42:38;58.67;;;16.17;;
41755;SDS011;27435;48.480;9.258;2022-11-13T07:45:04;22.77;;;12.03;;
41755;SDS011;27435;48.480;9.258;2022-11-13T07:47:30;20.97;;;11.47;;
41755;SDS011;27435;48.480;9.258;2022-11-13T07:49:56;17.97;;;10.43;;
41755;SDS011;27435;48.480;9.258;2022-11-13T07:52:22;22.33;;;9.93;;
41755;SDS011;27435;48.480;9.258;2022-11-13T07:54:47;17.80;;;9.30;;
41755;SDS011;27435;48.480;9.258;2022-11-13T07:57:13;44.90;;;12.63;;
41755;SDS011;27435;48.480;9.258;2022-11-13T07:59:39;30.37;;;12.10;;
41755;SDS011;27435;48.480;9.258;2022-11-13T08:02:05;23.10;;;11.77;;
41755;SDS011;27435;48.480;9.258;2022-11-13T08:04:34;68.10;;;16.03;;
41755;SDS011;27435;48.480;9.258;2022-11-13T08:07:00;137.57;;;18.70;;
41755;SDS011;27435;48.480;9.258;2022-11-13T08:09:25;83.63;;;14.37;;
41755;SDS011;27435;48.480;9.258;2022-11-13T08:11:51;64.23;;;15.87;;
41755;SDS011;27435;48.480;9.258;2022-11-13T08:14:17;158.07;;;19.23;;
41755;SDS011;27435;48.480;9.258;2022-11-13T08:16:42;138.73;;;16.50;;
41755;SDS011;27435;48.480;9.258;2022-11-13T08:19:08;170.03;;;18.37;;
41755;SDS011;27435;48.480;9.258;2022-11-13T08:21:34;85.30;;;13.50;;
41755;SDS011;27435;48.480;9.258;2022-11-13T08:24:00;240.10;;;23.07;;
41755;SDS011;27435;48.480;9.258;2022-11-13T08:26:26;107.30;;;15.93;;
41755;SDS011;27435;48.480;9.258;2022-11-13T08:28:51;82.40;;;13.57;;
41755;SDS011;27435;48.480;9.258;2022-11-13T08:31:17;68.30;;;14.70;;
41755;SDS011;27435;48.480;9.258;2022-11-13T08:33:42;177.37;;;16.73;;
41755;SDS011;27435;48.480;9.258;2022-11-13T08:36:09;131.43;;;19.00;;
41755;SDS011;27435;48.480;9.258;2022-11-13T08:38:35;117.10;;;15.97;;
41755;SDS011;27435;48.480;9.258;2022-11-13T08:41:02;96.13;;;14.03;;
41755;SDS011;27435;48.480;9.258;2022-11-13T08:43:29;130.60;;;16.37;;
41755;SDS011;27435;48.480;9.258;2022-11-13T08:45:55;91.33;;;12.77;;
41755;SDS011;27435;48.480;9.258;2022-11-13T08:48:21;221.33;;;21.80;;
41755;SDS011;27435;48.480;9.258;2022-11-13T08:50:53;48.90;;;11.20;;
41755;SDS011;27435;48.480;9.258;2022-11-13T08:53:21;72.20;;;13.90;;
41755;SDS011;27435;48.480;9.258;2022-11-13T08:55:47;89.63;;;13.83;;
41755;SDS011;27435;48.480;9.258;2022-11-13T08:58:13;73.47;;;11.83;;
41755;SDS011;27435;48.480;9.258;2022-11-13T09:00:39;38.57;;;11.13;;
41755;SDS011;27435;48.480;9.258;2022-11-13T09:03:04;55.33;;;12.20;;
41755;SDS011;27435;48.480;9.258;2022-11-13T09:05:30;87.40;;;12.30;;
41755;SDS011;27435;48.480;9.258;2022-11-13T09:07:57;89.17;;;13.07;;
41755;SDS011;27435;48.480;9.258;2022-11-13T09:10:24;95.83;;;13.03;;
41755;SDS011;27435;48.480;9.258;2022-11-13T09:12:54;68.57;;;12.90;;
41755;SDS011;27435;48.480;9.258;2022-11-13T09:15:25;104.53;;;15.47;;
41755;SDS011;27435;48.480;9.258;2022-11-13T09:17:54;145.40;;;18.10;;
41755;SDS011;27435;48.480;9.258;2022-11-13T09:20:22;143.13;;;15.57;;
41755;SDS011;27435;48.480;9.258;2022-11-13T09:22:54;53.67;;;13.10;;
41755;SDS011;27435;48.480;9.258;2022-11-13T09:25:21;58.97;;;13.63;;
41755;SDS011;27435;48.480;9.258;2022-11-13T09:27:53;78.07;;;16.60;;
41755;SDS011;27435;48.480;9.258;2022-11-13T09:30:20;40.77;;;13.40;;
41755;SDS011;27435;48.480;9.258;2022-11-13T09:32:46;69.00;;;16.30;;
41755;SDS011;27435;48.480;9.258;2022-11-13T09:35:12;118.83;;;16.53;;
41755;SDS011;27435;48.480;9.258;2022-11-13T09:37:37;95.30;;;15.07;;
41755;SDS011;27435;48.480;9.258;2022-11-13T09:40:03;44.73;;;11.23;;
41755;SDS011;27435;48.480;9.258;2022-11-13T09:42:29;42.93;;;11.93;;
41755;SDS011;27435;48.480;9.258;2022-11-13T09:45:06;53.23;;;12.73;;
41755;SDS011;27435;48.480;9.258;2022-11-13T09:47:41;49.27;;;10.87;;
41755;SDS011;27435;48.480;9.258;2022-11-13T09:50:21;22.97;;;11.03;;
41755;SDS011;27435;48.480;9.258;2022-11-13T09:52:48;33.90;;;12.13;;
41755;SDS011;27435;48.480;9.258;2022-11-13T09:55:17;32.83;;;10.80;;
41755;SDS011;27435;48.480;9.258;2022-11-13T10:00:19;18.77;;;11.00;;
41755;SDS011;27435;48.480;9.258;2022-11-13T10:13:44;20.17;;;12.70;;
41755;SDS011;27435;48.480;9.258;2022-11-13T10:16:33;23.67;;;12.70;;
41755;SDS011;27435;48.480;9.258;2022-11-13T10:19:15;22.83;;;12.13;;
41755;SDS011;27435;48.480;9.258;2022-11-13T10:21:57;20.10;;;11.50;;
41755;SDS011;27435;48.480;9.258;2022-11-13T10:24:29;18.83;;;12.07;;
41755;SDS011;27435;48.480;9.258;2022-11-13T10:27:06;19.55;;;11.45;;
41755;SDS011;27435;48.480;9.258;2022-11-13T10:29:36;17.97;;;11.63;;
41755;SDS011;27435;48.480;9.258;2022-11-13T10:32:16;36.10;;;11.33;;
41755;SDS011;27435;48.480;9.258;2022-11-13T10:34:53;36.07;;;13.40;;
41755;SDS011;27435;48.480;9.258;2022-11-13T10:37:50;19.40;;;11.37;;
41755;SDS011;27435;48.480;9.258;2022-11-13T10:40:28;17.07;;;10.50;;
41755;SDS011;27435;48.480;9.258;2022-11-13T10:45:37;16.27;;;10.53;;
41755;SDS011;27435;48.480;9.258;2022-11-13T10:48:04;16.90;;;10.70;;
41755;SDS011;27435;48.480;9.258;2022-11-13T10:50:30;15.77;;;9.50;;
41755;SDS011;27435;48.480;9.258;2022-11-13T10:52:57;19.73;;;11.27;;
41755;SDS011;27435;48.480;9.258;2022-11-13T10:55:34;19.27;;;10.07;;
41755;SDS011;27435;48.480;9.258;2022-11-13T10:58:13;15.17;;;9.70;;
41755;SDS011;27435;48.480;9.258;2022-11-13T11:00:40;14.87;;;9.73;;
41755;SDS011;27435;48.480;9.258;2022-11-13T11:03:26;14.33;;;9.33;;
41755;SDS011;27435;48.480;9.258;2022-11-13T11:05:54;12.13;;;8.70;;
41755;SDS011;27435;48.480;9.258;2022-11-13T11:08:30;13.90;;;9.40;;
41755;SDS011;27435;48.480;9.258;2022-11-13T11:13:43;15.20;;;10.10;;
41755;SDS011;27435;48.480;9.258;2022-11-13T11:16:11;16.57;;;10.63;;
41755;SDS011;27435;48.480;9.258;2022-11-13T11:18:45;15.57;;;10.37;;
41755;SDS011;27435;48.480;9.258;2022-11-13T11:21:20;19.45;;;11.77;;
41755;SDS011;27435;48.480;9.258;2022-11-13T11:23:54;19.43;;;11.03;;
41755;SDS011;27435;48.480;9.258;2022-11-13T11:26:25;19.60;;;11.33;;
41755;SDS011;27435;48.480;9.258;2022-11-13T11:29:07;19.30;;;12.57;;
41755;SDS011;27435;48.480;9.258;2022-11-13T11:31:52;17.23;;;11.73;;
41755;SDS011;27435;48.480;9.258;2022-11-13T11:34:49;18.40;;;11.80;;
41755;SDS011;27435;48.480;9.258;2022-11-13T11:37:34;17.10;;;10.37;;
41755;SDS011;27435;48.480;9.258;2022-11-13T11:45:36;19.40;;;11.70;;
41755;SDS011;27435;48.480;9.258;2022-11-13T11:48:11;18.70;;;12.40;;
41755;SDS011;27435;48.480;9.258;2022-11-13T11:56:38;17.40;;;11.83;;
41755;SDS011;27435;48.480;9.258;2022-11-13T12:04:51;18.83;;;12.03;;
41755;SDS011;27435;48.480;9.258;2022-11-13T12:13:09;20.17;;;11.70;;
41755;SDS011;27435;48.480;9.258;2022-11-13T12:16:12;20.57;;;11.77;;
41755;SDS011;27435;48.480;9.258;2022-11-13T12:19:09;19.37;;;11.10;;
41755;SDS011;27435;48.480;9.258;2022-11-13T12:22:10;17.07;;;10.70;;
41755;SDS011;27435;48.480;9.258;2022-11-13T12:24:52;16.70;;;11.40;;
41755;SDS011;27435;48.480;9.258;2022-11-13T12:28:04;16.90;;;10.93;;
41755;SDS011;27435;48.480;9.258;2022-11-13T12:30:31;19.47;;;12.17;;
41755;SDS011;27435;48.480;9.258;2022-11-13T12:35:41;18.63;;;12.20;;
41755;SDS011;27435;48.480;9.258;2022-11-13T12:46:15;17.50;;;10.87;;
41755;SDS011;27435;48.480;9.258;2022-11-13T12:48:42;15.77;;;9.40;;
41755;SDS011;27435;48.480;9.258;2022-11-13T12:51:11;15.63;;;10.97;;
41755;SDS011;27435;48.480;9.258;2022-11-13T12:53:51;20.23;;;12.50;;
41755;SDS011;27435;48.480;9.258;2022-11-13T13:01:32;16.30;;;10.57;;
41755;SDS011;27435;48.480;9.258;2022-11-13T13:07:12;17.00;;;9.80;;
41755;SDS011;27435;48.480;9.258;2022-11-13T13:15:54;15.77;;;8.47;;
41755;SDS011;27435;48.480;9.258;2022-11-13T13:23:37;11.97;;;7.90;;
41755;SDS011;27435;48.480;9.258;2022-11-13T13:28:30;16.60;;;8.10;;
41755;SDS011;27435;48.480;9.258;2022-11-13T13:31:06;13.07;;;8.17;;
41755;SDS011;27435;48.480;9.258;2022-11-13T13:36:19;11.20;;;7.57;;
41755;SDS011;27435;48.480;9.258;2022-11-13T13:38:56;14.10;;;8.40;;
41755;SDS011;27435;48.480;9.258;2022-11-13T13:44:21;16.00;;;7.73;;
41755;SDS011;27435;48.480;9.258;2022-11-13T13:46:57;14.93;;;7.97;;
41755;SDS011;27435;48.480;9.258;2022-11-13T13:49:23;14.50;;;9.00;;
41755;SDS011;27435;48.480;9.258;2022-11-13T13:51:51;14.63;;;8.93;;
41755;SDS011;27435;48.480;9.258;2022-11-13T13:54:19;16.47;;;8.67;;
41755;SDS011;27435;48.480;9.258;2022-11-13T13:56:48;12.70;;;7.63;;
41755;SDS011;27435;48.480;9.258;2022-11-13T13:59:15;12.10;;;7.50;;
41755;SDS011;27435;48.480;9.258;2022-11-13T14:02:03;10.97;;;7.47;;
41755;SDS011;27435;48.480;9.258;2022-11-13T14:04:45;11.90;;;7.73;;
41755;SDS011;27435;48.480;9.258;2022-11-13T14:07:20;12.27;;;8.13;;
41755;SDS011;27435;48.480;9.258;2022-11-13T14:09:48;12.43;;;7.47;;
41755;SDS011;27435;48.480;9.258;2022-11-13T14:12:18;10.50;;;7.17;;
41755;SDS011;27435;48.480;9.258;2022-11-13T14:14:45;10.30;;;7.63;;
41755;SDS011;27435;48.480;9.258;2022-11-13T14:17:11;12.60;;;7.93;;
41755;SDS011;27435;48.480;9.258;2022-11-13T14:19:51;13.37;;;7.20;;
41755;SDS011;27435;48.480;9.258;2022-11-13T14:22:18;11.33;;;7.43;;
41755;SDS011;27435;48.480;9.258;2022-11-13T14:24:47;12.20;;;7.43;;
41755;SDS011;27435;48.480;9.258;2022-11-13T14:27:25;11.23;;;7.27;;
41755;SDS011;27435;48.480;9.258;2022-11-13T14:29:56;10.30;;;6.83;;
41755;SDS011;27435;48.480;9.258;2022-11-13T14:32:25;11.37;;;6.70;;
41755;SDS011;27435;48.480;9.258;2022-11-13T14:34:56;10.30;;;6.67;;
41755;SDS011;27435;48.480;9.258;2022-11-13T14:37:26;9.37;;;6.10;;
41755;SDS011;27435;48.480;9.258;2022-11-13T14:39:56;12.90;;;7.13;;
41755;SDS011;27435;48.480;9.258;2022-11-13T14:42:29;10.13;;;6.67;;
41755;SDS011;27435;48.480;9.258;2022-11-13T14:45:14;10.10;;;6.93;;
41755;SDS011;27435;48.480;9.258;2022-11-13T14:47:42;8.47;;;6.10;;
41755;SDS011;27435;48.480;9.258;2022-11-13T14:52:56;10.33;;;6.83;;
41755;SDS011;27435;48.480;9.258;2022-11-13T14:55:29;12.27;;;6.87;;
41755;SDS011;27435;48.480;9.258;2022-11-13T14:58:02;10.33;;;6.93;;
41755;SDS011;27435;48.480;9.258;2022-11-13T15:00:30;10.10;;;7.30;;
41755;SDS011;27435;48.480;9.258;2022-11-13T15:02:57;11.27;;;6.80;;
41755;SDS011;27435;48.480;9.258;2022-11-13T15:05:25;12.20;;;6.20;;
41755;SDS011;27435;48.480;9.258;2022-11-13T15:07:52;11.00;;;6.67;;
41755;SDS011;27435;48.480;9.258;2022-11-13T15:10:22;13.37;;;7.73;;
41755;SDS011;27435;48.480;9.258;2022-11-13T15:12:50;11.53;;;7.30;;
41755;SDS011;27435;48.480;9.258;2022-11-13T15:15:21;13.30;;;7.87;;
41755;SDS011;27435;48.480;9.258;2022-11-13T15:17:51;10.50;;;6.60;;
41755;SDS011;27435;48.480;9.258;2022-11-13T15:20:23;11.00;;;6.67;;
41755;SDS011;27435;48.480;9.258;2022-11-13T15:22:50;9.33;;;6.50;;
41755;SDS011;27435;48.480;9.258;2022-11-13T15:25:18;9.53;;;6.07;;
41755;SDS011;27435;48.480;9.258;2022-11-13T15:27:45;11.43;;;6.97;;
41755;SDS011;27435;48.480;9.258;2022-11-13T15:30:11;11.90;;;7.83;;
41755;SDS011;27435;48.480;9.258;2022-11-13T15:32:37;11.10;;;7.10;;
41755;SDS011;27435;48.480;9.258;2022-11-13T15:35:05;12.10;;;6.67;;
41755;SDS011;27435;48.480;9.258;2022-11-13T15:37:35;11.30;;;7.10;;
41755;SDS011;27435;48.480;9.258;2022-11-13T15:40:01;13.73;;;7.27;;
41755;SDS011;27435;48.480;9.258;2022-11-13T15:42:28;11.70;;;7.40;;
41755;SDS011;27435;48.480;9.258;2022-11-13T15:44:57;12.83;;;7.73;;
41755;SDS011;27435;48.480;9.258;2022-11-13T15:49:58;13.93;;;7.80;;
41755;SDS011;27435;48.480;9.258;2022-11-13T15:52:31;14.50;;;8.00;;
41755;SDS011;27435;48.480;9.258;2022-11-13T15:55:11;14.82;;;8.68;;
41755;SDS011;27435;48.480;9.258;2022-11-13T15:57:51;15.90;;;9.15;;
41755;SDS011;27435;48.480;9.258;2022-11-13T16:00:21;18.43;;;10.60;;
41755;SDS011;27435;48.480;9.258;2022-11-13T16:02:52;16.70;;;10.63;;
41755;SDS011;27435;48.480;9.258;2022-11-13T16:05:25;17.47;;;10.83;;
41755;SDS011;27435;48.480;9.258;2022-11-13T16:08:04;20.77;;;11.73;;